Time;durP1;ratioP1;P1;durP2;ratioP2;P2;SDS_P1;SDS_P2;PMS_P1;PMS_P2;Temp;Humidity;BMP_temperature;BMP_pressure;BME280_temperature;BME280_humidity;BME280_pressure;Samples;Min_cycle;Max_cycle;Signal;HPM_P1;HPM_P2
2023/05/11 00:02:09;;;;;;;2.67;1.27;;;;;;;15.97;60.08;99790.91;4470871;32;20202;-87
2023/05/11 00:04:34;;;;;;;2.47;1.55;;;;;;;15.93;60.08;99797.25;4471495;32;20116;-88
2023/05/11 00:06:59;;;;;;;10.80;1.77;;;;;;;15.91;60.07;99796.50;4483882;31;20918;-88
2023/05/11 00:09:25;;;;;;;2.17;1.50;;;;;;;15.93;60.08;99794.63;4466575;32;34096;-87
2023/05/11 00:11:51;;;;;;;2.60;1.80;;;;;;;15.84;60.08;99792.47;4466590;32;20139;-87
2023/05/11 00:14:17;;;;;;;2.85;1.55;;;;;;;15.88;60.08;99780.91;4467870;32;20500;-87
2023/05/11 00:16:42;;;;;;;4.70;1.73;;;;;;;15.76;60.07;99786.78;4479462;32;20113;-87
2023/05/11 00:19:08;;;;;;;2.58;1.35;;;;;;;15.74;60.07;99788.66;4483339;32;20180;-88
2023/05/11 00:21:33;;;;;;;4.10;1.70;;;;;;;15.77;60.06;99788.47;4483051;32;20080;-87
2023/05/11 00:23:58;;;;;;;2.72;1.40;;;;;;;15.80;60.07;99783.91;4467563;32;20539;-88
2023/05/11 00:26:25;;;;;;;5.15;1.70;;;;;;;15.68;60.06;99794.22;4478983;32;20159;-88
2023/05/11 00:28:51;;;;;;;3.87;1.62;;;;;;;15.70;60.07;99785.34;4470244;32;20107;-87
2023/05/11 00:31:16;;;;;;;5.25;2.03;;;;;;;15.71;60.07;99794.06;4470108;32;20707;-87
2023/05/11 00:33:41;;;;;;;3.28;1.90;;;;;;;15.70;60.07;99787.97;4470037;32;20105;-87
2023/05/11 00:36:07;;;;;;;4.30;1.50;;;;;;;15.67;60.06;99788.13;4457831;32;20092;-87
2023/05/11 00:38:33;;;;;;;2.97;2.03;;;;;;;15.74;60.06;99791.28;4468908;32;20432;-87
2023/05/11 00:40:58;;;;;;;4.78;1.95;;;;;;;15.68;60.06;99788.97;4469823;32;20149;-87
2023/05/11 00:43:24;;;;;;;4.05;1.80;;;;;;;15.53;60.05;99782.69;4469464;32;25137;-90
2023/05/11 00:45:51;;;;;;;3.33;1.77;;;;;;;15.46;60.04;99781.34;4456859;32;20136;-87
2023/05/11 00:48:16;;;;;;;7.57;1.85;;;;;;;15.44;60.05;99780.56;4470186;32;20171;-87
2023/05/11 00:50:41;;;;;;;3.03;2.00;;;;;;;15.45;60.04;99777.84;4469001;32;34550;-87
2023/05/11 00:53:07;;;;;;;3.12;1.55;;;;;;;15.45;60.05;99777.84;4456426;32;20100;-87
2023/05/11 00:55:32;;;;;;;2.50;1.48;;;;;;;15.45;60.04;99780.47;4484067;31;20108;-87
2023/05/11 00:57:58;;;;;;;3.30;2.08;;;;;;;15.60;60.06;99779.69;4467014;32;20132;-87
2023/05/11 01:00:23;;;;;;;2.67;1.58;;;;;;;15.50;60.06;99775.84;4478690;32;20521;-87
2023/05/11 01:02:49;;;;;;;5.05;2.08;;;;;;;15.40;60.05;99779.87;4482889;32;20093;-87
2023/05/11 01:05:14;;;;;;;4.12;2.28;;;;;;;15.38;60.05;99775.59;4454928;32;20155;-87
2023/05/11 01:07:47;;;;;;;3.75;1.90;;;;;;;15.44;60.05;99777.94;4467092;32;20101;-87
2023/05/11 01:10:33;;;;;;;4.00;1.70;;;;;;;15.40;60.05;99779.03;4479442;32;20401;-87
2023/05/11 01:13:21;;;;;;;3.10;1.83;;;;;;;15.40;60.04;99768.53;4482966;32;20108;-87
2023/05/11 01:15:50;;;;;;;4.25;2.00;;;;;;;15.44;60.05;99773.53;4471128;32;20126;-88
2023/05/11 01:18:51;;;;;;;3.67;1.92;;;;;;;15.34;60.05;99780.16;4482631;32;20104;-87
2023/05/11 01:21:17;;;;;;;3.85;2.10;;;;;;;15.34;60.04;99775.78;4484270;32;20093;-87
2023/05/11 01:24:01;;;;;;;4.62;2.15;;;;;;;15.39;60.03;99772.09;4471947;32;20128;-87
2023/05/11 01:26:34;;;;;;;2.83;1.52;;;;;;;15.25;60.04;99773.63;4486564;31;20155;-87
2023/05/11 01:29:24;;;;;;;2.92;1.73;;;;;;;15.33;60.04;99765.37;4477602;32;20107;-87
2023/05/11 01:31:50;;;;;;;2.62;1.48;;;;;;;15.33;60.04;99767.97;4475659;32;20570;-87
2023/05/11 01:34:21;;;;;;;3.10;1.92;;;;;;;15.39;60.04;99775.56;4471565;32;20088;-87
2023/05/11 01:37:12;;;;;;;3.50;1.80;;;;;;;15.36;60.04;99767.81;4458681;32;20160;-87
2023/05/11 01:39:40;;;;;;;2.87;1.75;;;;;;;15.38;60.06;99776.50;4473634;32;20149;-87
2023/05/11 01:42:09;;;;;;;4.85;2.17;;;;;;;15.31;60.05;99770.69;4468808;32;20116;-86
2023/05/11 01:44:35;;;;;;;4.72;2.83;;;;;;;15.38;60.04;99773.88;4469992;32;20461;-87
2023/05/11 01:47:00;;;;;;;3.70;2.00;;;;;;;15.35;60.04;99766.97;4471397;32;20176;-87
2023/05/11 01:49:26;;;;;;;2.50;1.50;;;;;;;15.26;60.04;99766.59;4473680;32;20101;-87
2023/05/11 01:51:52;;;;;;;5.12;2.17;;;;;;;15.33;60.04;99773.22;4475529;32;20376;-87
2023/05/11 01:54:17;;;;;;;4.37;1.80;;;;;;;15.40;60.05;99768.53;4482738;32;20139;-87
2023/05/11 01:56:42;;;;;;;2.42;1.77;;;;;;;15.39;60.04;99772.94;4471500;32;20129;-87
2023/05/11 01:59:08;;;;;;;5.53;1.77;;;;;;;15.30;60.04;99763.75;4470887;32;23594;-87
2023/05/11 02:01:35;;;;;;;4.82;2.08;;;;;;;15.20;60.03;99756.44;4484775;32;20377;-87
2023/05/11 02:04:01;;;;;;;4.45;1.87;;;;;;;15.40;60.05;99764.13;4457356;32;20108;-87
2023/05/11 02:06:26;;;;;;;2.17;1.48;;;;;;;15.17;60.05;99761.84;4452208;32;20398;-87
2023/05/11 02:08:51;;;;;;;3.25;1.83;;;;;;;15.10;60.04;99761.28;4470376;32;22066;-88
2023/05/11 02:11:17;;;;;;;8.65;1.90;;;;;;;15.05;60.03;99760.66;4471221;32;20112;-87
2023/05/11 02:13:44;;;;;;;2.62;1.58;;;;;;;15.07;60.02;99761.44;4457330;32;35143;-88
2023/05/11 02:16:09;;;;;;;4.28;1.95;;;;;;;15.09;60.03;99759.59;4484521;32;20407;-88
2023/05/11 02:18:35;;;;;;;6.32;1.73;;;;;;;15.26;60.03;99756.13;4455317;32;20128;-87
2023/05/11 02:21:00;;;;;;;3.67;1.65;;;;;;;14.99;60.02;99753.97;4458174;32;20127;-87
2023/05/11 02:23:26;;;;;;;3.00;1.50;;;;;;;15.10;60.03;99758.66;4470718;32;30502;-87
2023/05/11 02:25:52;;;;;;;3.58;1.77;;;;;;;15.10;60.03;99756.03;4485719;31;20088;-87
2023/05/11 02:28:18;;;;;;;5.30;1.90;;;;;;;15.13;60.04;99755.03;4472354;32;20131;-88
2023/05/11 02:30:45;;;;;;;6.10;2.03;;;;;;;15.16;60.04;99755.75;4472332;32;20200;-88
2023/05/11 02:33:10;;;;;;;3.70;2.00;;;;;;;15.08;60.02;99752.66;4472773;32;20397;-88
2023/05/11 02:35:38;;;;;;;3.03;1.95;;;;;;;15.09;60.04;99749.09;4459596;32;20088;-86
2023/05/11 02:38:03;;;;;;;3.30;1.83;;;;;;;14.95;60.02;99752.44;4459857;32;20151;-86
2023/05/11 02:40:31;;;;;;;3.85;1.73;;;;;;;15.12;60.03;99746.31;4485527;32;20392;-87
2023/05/11 02:42:59;;;;;;;5.40;2.00;;;;;;;15.01;60.03;99743.41;4472873;32;20104;-86
2023/05/11 02:45:27;;;;;;;2.70;1.83;;;;;;;14.90;60.02;99746.53;4472859;32;20104;-86
2023/05/11 02:47:54;;;;;;;9.20;2.15;;;;;;;14.71;60.02;99740.53;4472606;32;20445;-87
2023/05/11 02:50:20;;;;;;;3.97;2.00;;;;;;;14.82;60.02;99735.59;4461032;32;20448;-86
2023/05/11 02:52:46;;;;;;;3.87;2.05;;;;;;;14.71;60.01;99738.78;4473807;32;20126;-87
2023/05/11 02:55:11;;;;;;;4.03;1.80;;;;;;;14.70;60.00;99741.47;4472596;32;20358;-87
2023/05/11 02:57:37;;;;;;;5.97;2.03;;;;;;;14.46;59.99;99737.41;4472281;32;20130;-86
2023/05/11 03:00:03;;;;;;;4.55;1.83;;;;;;;14.43;59.99;99739.25;4472295;32;20425;-86
2023/05/11 03:02:28;;;;;;;3.85;2.00;;;;;;;14.36;59.99;99739.56;4472357;32;20429;-86
2023/05/11 03:04:54;;;;;;;4.57;2.30;;;;;;;14.33;59.99;99737.09;4471313;32;34315;-86
2023/05/11 03:07:19;;;;;;;3.28;2.00;;;;;;;14.19;59.99;99737.75;4485980;31;20567;-86
2023/05/11 03:09:45;;;;;;;4.10;2.25;;;;;;;14.16;59.97;99744.91;4459355;32;20167;-86
2023/05/11 03:12:10;;;;;;;3.35;2.08;;;;;;;14.02;59.97;99743.78;4486666;31;20194;-86
2023/05/11 03:14:36;;;;;;;4.35;2.47;;;;;;;14.10;59.98;99746.03;4485005;32;20115;-87
2023/05/11 03:17:02;;;;;;;4.12;1.95;;;;;;;13.91;59.96;99742.56;4459095;32;20161;-86
2023/05/11 03:19:27;;;;;;;5.53;2.22;;;;;;;14.03;59.97;99749.87;4472299;32;20169;-87
2023/05/11 03:21:53;;;;;;;5.47;2.20;;;;;;;13.92;59.96;99750.34;4486453;31;20148;-86
2023/05/11 03:24:18;;;;;;;3.80;1.95;;;;;;;14.20;59.98;99752.56;4471921;32;20092;-86
2023/05/11 03:26:44;;;;;;;3.08;1.85;;;;;;;14.03;59.98;99747.25;4472257;32;20088;-85
2023/05/11 03:29:09;;;;;;;6.55;2.22;;;;;;;13.81;59.96;99755.22;4485217;32;20143;-86
2023/05/11 03:31:34;;;;;;;5.50;2.28;;;;;;;13.78;59.95;99760.59;4485247;32;20132;-86
2023/05/11 03:34:00;;;;;;;2.83;2.00;;;;;;;13.90;59.96;99760.03;4472045;32;20120;-84
2023/05/11 03:36:25;;;;;;;4.03;2.30;;;;;;;13.78;59.96;99758.00;4484743;32;20104;-84
2023/05/11 03:38:57;;;;;;;4.12;2.10;;;;;;;13.71;59.95;99760.00;4484220;32;34924;-85
2023/05/11 03:41:24;;;;;;;4.55;2.03;;;;;;;13.69;59.95;99750.53;4485373;32;20097;-86
2023/05/11 03:43:50;;;;;;;4.15;2.37;;;;;;;13.64;59.95;99750.75;4471421;32;20126;-85
2023/05/11 03:46:17;;;;;;;5.50;2.03;;;;;;;13.83;59.96;99754.25;4472247;32;20089;-85
2023/05/11 03:48:43;;;;;;;6.15;2.10;;;;;;;13.65;59.95;99759.44;4459062;32;20084;-85
2023/05/11 03:51:08;;;;;;;6.00;2.30;;;;;;;13.70;59.95;99758.31;4471106;32;36882;-85
2023/05/11 03:53:33;;;;;;;4.20;2.35;;;;;;;13.61;59.95;99757.87;4485196;32;20140;-85
2023/05/11 03:55:59;;;;;;;5.12;2.22;;;;;;;13.65;59.95;99755.06;4471910;32;20169;-85
2023/05/11 03:58:24;;;;;;;5.78;2.80;;;;;;;13.67;59.95;99761.06;4471106;32;30721;-85
2023/05/11 04:00:50;;;;;;;6.90;2.33;;;;;;;13.67;59.95;99760.22;4471041;32;32443;-86
2023/05/11 04:03:15;;;;;;;7.70;2.53;;;;;;;13.59;59.95;99757.94;4471900;32;20376;-86
2023/05/11 04:05:40;;;;;;;4.07;2.08;;;;;;;13.58;59.95;99755.41;4471666;32;20110;-85
2023/05/11 04:08:06;;;;;;;5.55;2.10;;;;;;;13.61;59.94;99752.66;4484127;32;30500;-87
2023/05/11 04:10:32;;;;;;;4.65;2.47;;;;;;;13.65;59.95;99760.28;4486959;31;20488;-86
2023/05/11 04:12:57;;;;;;;5.53;2.15;;;;;;;13.73;59.96;99760.81;4485427;32;20376;-86
2023/05/11 04:15:22;;;;;;;4.72;2.53;;;;;;;13.86;59.96;99762.88;4485513;31;20169;-87
2023/05/11 04:17:48;;;;;;;4.90;2.10;;;;;;;13.96;59.97;99758.91;4458945;32;20488;-87
2023/05/11 04:20:13;;;;;;;4.55;2.10;;;;;;;14.04;59.97;99762.88;4484587;32;20096;-86
2023/05/11 04:22:39;;;;;;;3.90;1.92;;;;;;;14.25;59.98;99763.66;4484112;32;20137;-87
2023/05/11 04:25:04;;;;;;;4.97;2.20;;;;;;;14.37;59.99;99762.22;4458612;32;20140;-87
2023/05/11 04:27:33;;;;;;;5.82;2.37;;;;;;;14.51;59.99;99764.22;4484873;32;20084;-88
2023/05/11 04:29:59;;;;;;;6.55;1.90;;;;;;;14.45;59.99;99767.16;4471899;32;20131;-88
2023/05/11 04:32:25;;;;;;;4.05;2.00;;;;;;;14.53;59.99;99759.75;4471863;32;20445;-88
2023/05/11 04:34:50;;;;;;;5.95;2.22;;;;;;;14.57;60.00;99767.41;4484619;32;20421;-88
2023/05/11 04:37:15;;;;;;;4.37;2.30;;;;;;;14.71;60.01;99769.38;4458669;32;20125;-87
2023/05/11 04:39:41;;;;;;;2.60;2.10;;;;;;;14.79;60.01;99767.22;4471583;32;20425;-87
2023/05/11 04:42:06;;;;;;;4.20;1.90;;;;;;;14.86;60.02;99776.47;4484312;32;20484;-87
2023/05/11 04:44:31;;;;;;;3.58;2.08;;;;;;;14.97;60.02;99768.09;4484179;32;20161;-89
2023/05/11 04:46:57;;;;;;;7.97;2.20;;;;;;;15.05;60.02;99766.75;4458332;32;20135;-87
2023/05/11 04:49:22;;;;;;;6.18;2.30;;;;;;;15.19;60.03;99773.94;4458380;32;20381;-88
2023/05/11 04:51:48;;;;;;;4.87;1.30;;;;;;;15.20;60.03;99767.78;4471350;32;20437;-88
2023/05/11 04:54:13;;;;;;;3.05;1.87;;;;;;;15.29;60.03;99771.69;4471228;32;20093;-88
2023/05/11 04:56:39;;;;;;;5.87;2.15;;;;;;;15.39;60.04;99772.94;4485520;31;20140;-88
2023/05/11 04:59:05;;;;;;;5.30;2.08;;;;;;;15.45;60.04;99770.00;4471297;32;20092;-88
2023/05/11 05:01:31;;;;;;;10.25;2.03;;;;;;;15.58;60.05;99773.69;4471422;32;20130;-89
2023/05/11 05:03:56;;;;;;;6.90;1.98;;;;;;;15.74;60.06;99773.75;4483393;32;33525;-87
2023/05/11 05:06:22;;;;;;;8.15;2.33;;;;;;;15.87;60.07;99784.47;4483504;32;26673;-88
2023/05/11 05:08:47;;;;;;;4.15;1.90;;;;;;;16.00;60.08;99780.22;4470970;32;20127;-87
2023/05/11 05:11:12;;;;;;;3.55;2.20;;;;;;;16.06;60.08;99779.03;4457899;32;20484;-88
2023/05/11 05:13:38;;;;;;;4.55;2.05;;;;;;;16.14;60.08;99772.47;4457291;32;30735;-87
2023/05/11 05:16:03;;;;;;;3.85;2.35;;;;;;;16.10;60.08;99772.72;4484092;32;20129;-89
2023/05/11 05:18:29;;;;;;;3.45;2.10;;;;;;;16.24;60.09;99776.28;4485217;31;20101;-88
2023/05/11 05:20:54;;;;;;;3.35;2.03;;;;;;;16.30;60.08;99782.97;4457903;32;20119;-88
2023/05/11 05:23:20;;;;;;;5.25;2.30;;;;;;;16.37;60.09;99786.13;4456673;32;36428;-86
2023/05/11 05:25:45;;;;;;;6.05;2.00;;;;;;;16.45;60.09;99774.25;4457712;32;20140;-87
2023/05/11 05:28:10;;;;;;;7.07;1.85;;;;;;;16.63;60.12;99782.03;4470501;32;20459;-88
2023/05/11 05:30:36;;;;;;;5.35;2.22;;;;;;;16.75;60.12;99776.94;4483617;32;21412;-88
2023/05/11 05:33:01;;;;;;;5.05;2.10;;;;;;;16.76;60.12;99783.06;4484760;32;20100;-87
2023/05/11 05:35:27;;;;;;;5.72;2.17;;;;;;;16.99;60.14;99782.59;4470253;32;38270;-88
2023/05/11 05:37:52;;;;;;;8.80;3.67;;;;;;;17.06;60.13;99783.09;4483972;31;29757;-88
2023/05/11 05:40:18;;;;;;;4.75;2.17;;;;;;;16.98;60.13;99785.31;4469925;32;20160;-88
2023/05/11 05:42:43;;;;;;;10.73;3.25;;;;;;;17.06;60.12;99788.34;4469804;32;20425;-87
2023/05/11 05:45:09;;;;;;;5.12;1.73;;;;;;;17.11;60.13;99784.53;4483000;32;20111;-88
2023/05/11 05:47:34;;;;;;;5.62;2.40;;;;;;;17.11;60.13;99783.69;4482049;32;20119;-88
2023/05/11 05:50:00;;;;;;;4.30;1.65;;;;;;;17.19;60.13;99786.69;4469521;32;30335;-89
2023/05/11 05:52:25;;;;;;;2.90;1.70;;;;;;;17.33;60.15;99797.25;4469981;32;20127;-90
2023/05/11 05:54:50;;;;;;;5.90;2.08;;;;;;;17.34;60.15;99791.06;4469449;32;32715;-88
2023/05/11 05:57:16;;;;;;;6.53;2.42;;;;;;;17.45;60.16;99793.88;4484028;31;32466;-88
2023/05/11 05:59:41;;;;;;;4.55;2.20;;;;;;;17.40;60.14;99789.84;4470192;32;20475;-89
2023/05/11 06:02:07;;;;;;;3.15;1.70;;;;;;;17.43;60.14;99787.87;4470006;32;27111;-88
2023/05/11 06:04:33;;;;;;;2.85;1.87;;;;;;;17.54;60.16;99776.72;4483298;32;20140;-87
2023/05/11 06:06:59;;;;;;;4.55;2.05;;;;;;;17.70;60.17;99779.28;4484818;32;20140;-88
2023/05/11 06:09:25;;;;;;;5.37;2.53;;;;;;;17.85;60.17;99782.78;4485834;32;20104;-88
2023/05/11 06:11:52;;;;;;;7.47;2.17;;;;;;;17.96;60.18;99783.78;4472792;32;20365;-89
2023/05/11 06:14:18;;;;;;;3.75;2.00;;;;;;;18.03;60.18;99786.91;4473093;32;20077;-88
2023/05/11 06:16:43;;;;;;;2.85;1.77;;;;;;;17.90;60.17;99786.81;4485896;32;20123;-89
2023/05/11 06:19:10;;;;;;;6.28;1.92;;;;;;;17.89;60.17;99785.13;4471873;32;28727;-88
2023/05/11 06:21:35;;;;;;;6.87;2.72;;;;;;;18.07;60.20;99788.41;4485796;32;20111;-88
2023/05/11 06:24:00;;;;;;;4.28;2.30;;;;;;;18.24;60.20;99785.59;4459517;32;20092;-88
2023/05/11 06:26:27;;;;;;;6.95;2.22;;;;;;;18.38;60.21;99785.53;4459687;32;20105;-89
2023/05/11 06:28:53;;;;;;;6.87;2.42;;;;;;;18.41;60.21;99779.22;4459935;32;20502;-88
2023/05/11 06:31:18;;;;;;;7.87;2.12;;;;;;;18.34;60.20;99797.22;4472715;32;20387;-89
2023/05/11 06:33:44;;;;;;;3.47;2.08;;;;;;;18.47;60.21;99786.75;4472693;32;20076;-89
2023/05/11 06:36:09;;;;;;;4.10;2.10;;;;;;;18.48;60.21;99788.44;4472513;32;20118;-89
2023/05/11 06:38:35;;;;;;;4.82;2.10;;;;;;;18.61;60.21;99783.22;4472685;32;20475;-89
2023/05/11 06:41:00;;;;;;;4.82;1.90;;;;;;;18.55;60.22;99787.09;4485401;32;20115;-89
2023/05/11 06:43:25;;;;;;;4.97;2.20;;;;;;;18.65;60.21;99780.31;4458951;32;28805;-89
2023/05/11 06:45:51;;;;;;;3.87;2.42;;;;;;;18.62;60.22;99783.16;4459629;32;20126;-88
2023/05/11 06:48:16;;;;;;;6.05;1.92;;;;;;;18.78;60.22;99788.28;4459613;32;20092;-88
2023/05/11 06:50:42;;;;;;;5.53;2.12;;;;;;;18.90;60.23;99790.09;4485996;32;20148;-89
2023/05/11 06:53:09;;;;;;;3.20;2.10;;;;;;;19.04;60.24;99776.03;4472827;32;28627;-89
2023/05/11 06:55:34;;;;;;;5.57;2.30;;;;;;;19.14;60.25;99766.53;4487317;32;20069;-90
2023/05/11 06:58:00;;;;;;;4.68;2.58;;;;;;;19.38;60.25;99771.09;4485987;32;20454;-89
2023/05/11 07:00:26;;;;;;;3.15;2.00;;;;;;;19.47;60.26;99773.97;4486162;31;23102;-88
2023/05/11 07:02:51;;;;;;;4.75;2.10;;;;;;;19.38;60.25;99765.81;4485385;32;20081;-89
2023/05/11 07:05:17;;;;;;;3.20;2.12;;;;;;;19.43;60.25;99763.75;4459355;32;20135;-88
2023/05/11 07:07:42;;;;;;;6.55;2.70;;;;;;;19.39;60.26;99764.87;4472271;32;20774;-88
2023/05/11 07:10:08;;;;;;;7.15;2.12;;;;;;;19.38;60.26;99764.03;4471662;32;34610;-89
2023/05/11 07:12:33;;;;;;;5.07;2.10;;;;;;;19.51;60.26;99758.78;4472359;32;20088;-88
2023/05/11 07:14:59;;;;;;;4.57;2.22;;;;;;;19.54;60.27;99770.00;4485071;31;20101;-89
2023/05/11 07:17:24;;;;;;;5.18;1.77;;;;;;;19.60;60.27;99766.91;4471144;32;20113;-89
2023/05/11 07:19:54;;;;;;;3.20;1.90;;;;;;;19.55;60.27;99763.75;4472164;32;20110;-89
2023/05/11 07:22:19;;;;;;;5.68;1.90;;;;;;;19.55;60.27;99761.12;4472757;32;20475;-89
2023/05/11 07:24:45;;;;;;;4.47;1.70;;;;;;;19.82;60.28;99761.00;4472259;32;20100;-88
2023/05/11 07:27:11;;;;;;;5.15;1.80;;;;;;;19.95;60.29;99760.16;4459351;32;20122;-88
2023/05/11 07:29:36;;;;;;;5.80;1.67;;;;;;;20.03;60.29;99758.66;4485300;32;20100;-90
2023/05/11 07:32:02;;;;;;;3.33;1.73;;;;;;;20.13;60.29;99757.06;4459102;32;20084;-89
2023/05/11 07:34:27;;;;;;;4.70;1.70;;;;;;;20.24;60.31;99756.28;4472135;32;20526;-88
2023/05/11 07:36:52;;;;;;;4.47;1.73;;;;;;;20.32;60.30;99761.00;4485289;32;20177;-88
2023/05/11 07:39:18;;;;;;;7.22;2.58;;;;;;;20.33;60.31;99757.41;4471850;32;20420;-88
2023/05/11 07:41:43;;;;;;;4.87;1.98;;;;;;;20.24;60.31;99756.28;4459037;32;20119;-88
2023/05/11 07:44:09;;;;;;;8.15;1.83;;;;;;;20.43;60.32;99747.91;4484552;32;31886;-89
2023/05/11 07:46:34;;;;;;;2.95;1.92;;;;;;;20.57;60.33;99754.81;4459194;32;20173;-88
2023/05/11 07:49:00;;;;;;;4.70;2.15;;;;;;;20.60;60.32;99758.09;4458842;32;20140;-88
2023/05/11 07:51:26;;;;;;;6.15;2.17;;;;;;;20.54;60.33;99755.88;4459228;32;20080;-87
2023/05/11 07:53:51;;;;;;;3.00;1.70;;;;;;;20.71;60.33;99752.00;4485224;32;20429;-89
2023/05/11 07:56:16;;;;;;;4.43;1.73;;;;;;;20.83;60.33;99756.41;4459184;32;20169;-89
2023/05/11 07:58:42;;;;;;;3.47;1.73;;;;;;;21.13;60.36;99747.97;4485206;32;20080;-88
2023/05/11 08:01:07;;;;;;;3.70;2.00;;;;;;;21.18;60.35;99740.50;4485185;32;20124;-90
2023/05/11 08:03:33;;;;;;;4.93;2.12;;;;;;;21.25;60.36;99739.09;4472062;32;20531;-89
2023/05/11 08:05:58;;;;;;;3.35;1.58;;;;;;;21.38;60.38;99747.81;4484716;32;26707;-90
2023/05/11 08:08:24;;;;;;;2.35;1.55;;;;;;;21.19;60.35;99741.34;4458911;32;20132;-88
2023/05/11 08:10:49;;;;;;;4.93;1.87;;;;;;;21.39;60.37;99740.72;4472182;32;20128;-90
2023/05/11 08:13:14;;;;;;;2.25;1.58;;;;;;;21.79;60.39;99734.97;4459373;31;20126;-88
2023/05/11 08:15:40;;;;;;;5.45;2.03;;;;;;;21.61;60.37;99740.75;4472689;32;33999;-89
2023/05/11 08:18:06;;;;;;;1.95;1.50;;;;;;;21.67;60.38;99732.31;4486763;32;20440;-89
2023/05/11 08:20:31;;;;;;;4.60;1.62;;;;;;;22.02;60.40;99728.69;4471861;32;20148;-90
2023/05/11 08:22:57;;;;;;;3.78;1.52;;;;;;;22.09;60.41;99732.56;4471813;32;20093;-89
2023/05/11 08:25:22;;;;;;;4.10;1.42;;;;;;;22.22;60.40;99722.66;4471157;32;28083;-91
2023/05/11 08:27:48;;;;;;;6.47;1.70;;;;;;;22.42;60.42;99717.53;4458715;32;20139;-88
2023/05/11 08:30:13;;;;;;;2.60;1.85;;;;;;;22.73;60.44;99727.34;4470838;32;20161;-89
2023/05/11 08:32:39;;;;;;;2.12;1.58;;;;;;;22.72;60.44;99724.81;4484970;32;20132;-89
2023/05/11 08:35:05;;;;;;;3.25;1.75;;;;;;;22.60;60.43;99714.22;4471769;32;20100;-91
2023/05/11 08:37:30;;;;;;;2.17;1.60;;;;;;;22.74;60.44;99714.91;4484699;32;20110;-88
2023/05/11 08:39:56;;;;;;;3.80;1.50;;;;;;;22.86;60.44;99712.09;4471676;32;20120;-88
2023/05/11 08:42:23;;;;;;;5.43;1.87;;;;;;;22.91;60.44;99706.41;4458639;32;20116;-90
2023/05/11 08:44:48;;;;;;;2.95;1.30;;;;;;;23.07;60.45;99709.47;4458621;32;20469;-88
2023/05/11 08:47:13;;;;;;;3.03;2.08;;;;;;;23.18;60.47;99704.06;4458238;32;20128;-89
2023/05/11 08:49:39;;;;;;;3.15;1.40;;;;;;;22.81;60.44;99708.12;4458160;32;23023;-88
2023/05/11 08:52:04;;;;;;;3.67;1.20;;;;;;;22.60;60.42;99716.03;4470953;32;25806;-89
2023/05/11 08:54:30;;;;;;;3.62;1.37;;;;;;;22.46;60.42;99701.25;4484553;32;20123;-88
2023/05/11 08:56:56;;;;;;;3.47;1.50;;;;;;;22.62;60.43;99706.16;4458537;32;20364;-89
2023/05/11 08:59:21;;;;;;;6.65;1.50;;;;;;;22.84;60.44;99697.28;4484418;32;20423;-89
2023/05/11 09:01:46;;;;;;;1.92;1.20;;;;;;;22.91;60.44;99696.63;4470977;32;20472;-91
2023/05/11 09:04:12;;;;;;;3.92;1.55;;;;;;;23.18;60.46;99690.78;4457846;32;20456;-87
2023/05/11 09:06:37;;;;;;;7.18;1.87;;;;;;;23.50;60.48;99687.22;4470935;32;20120;-88
2023/05/11 09:09:03;;;;;;;3.83;1.67;;;;;;;23.56;60.48;99692.00;4483548;32;36976;-90
2023/05/11 09:11:28;;;;;;;5.82;1.90;;;;;;;23.74;60.49;99681.59;4471281;32;20108;-87
2023/05/11 09:13:54;;;;;;;5.07;1.77;;;;;;;23.94;60.50;99680.69;4484236;32;20113;-89
2023/05/11 09:16:19;;;;;;;4.85;1.95;;;;;;;24.00;60.50;99672.16;4457655;32;22165;-88
2023/05/11 09:18:51;;;;;;;6.55;1.87;;;;;;;24.03;60.50;99676.38;4457407;32;34650;-87
2023/05/11 09:21:17;;;;;;;7.53;1.67;;;;;;;23.87;60.50;99677.72;4458283;32;20175;-88
2023/05/11 09:23:43;;;;;;;2.92;1.80;;;;;;;23.88;60.50;99676.75;4484175;32;20100;-88
2023/05/11 09:26:23;;;;;;;4.65;1.80;;;;;;;23.95;60.50;99678.88;4485413;31;20096;-90
2023/05/11 09:28:49;;;;;;;5.05;1.67;;;;;;;24.21;60.52;99669.41;4471661;32;20708;-89
2023/05/11 09:31:36;;;;;;;2.15;1.42;;;;;;;24.25;60.52;99667.31;4471292;32;20100;-87
2023/05/11 09:34:15;;;;;;;3.42;1.65;;;;;;;23.71;60.49;99669.44;4484528;32;20096;-90
2023/05/11 09:36:41;;;;;;;3.97;1.50;;;;;;;23.87;60.51;99661.78;4472547;32;20140;-89
2023/05/11 09:39:07;;;;;;;2.72;1.50;;;;;;;24.09;60.51;99666.00;4474349;32;20135;-89
2023/05/11 09:41:33;;;;;;;2.87;1.73;;;;;;;24.14;60.51;99657.66;4484867;32;20512;-89
2023/05/11 09:44:12;;;;;;;1.33;1.20;;;;;;;24.30;60.52;99655.31;4472573;32;21095;-88
2023/05/11 09:46:38;;;;;;;4.15;2.25;;;;;;;24.34;60.52;99650.53;4473123;32;20435;-88
2023/05/11 09:49:04;;;;;;;2.78;1.00;;;;;;;24.33;60.52;99656.84;4486160;32;20111;-89
2023/05/11 09:51:31;;;;;;;3.55;1.20;;;;;;;24.28;60.52;99661.72;4459894;32;20100;-90
2023/05/11 09:53:57;;;;;;;3.62;1.15;;;;;;;23.92;60.50;99655.22;4473033;32;20104;-88
2023/05/11 09:56:22;;;;;;;4.68;1.10;;;;;;;23.74;60.49;99649.72;4459838;32;20481;-89
2023/05/11 09:58:53;;;;;;;1.37;1.15;;;;;;;23.87;60.50;99658.28;4459052;32;34241;-88
2023/05/11 10:01:28;;;;;;;0.80;0.80;;;;;;;23.84;60.50;99663.84;4460172;32;20148;-89
2023/05/11 10:03:53;;;;;;;3.42;1.10;;;;;;;24.08;60.51;99645.72;4460034;32;20128;-90
2023/05/11 10:06:19;;;;;;;2.15;0.85;;;;;;;24.31;60.53;99645.50;4459663;32;20211;-89
2023/05/11 10:08:45;;;;;;;3.47;1.20;;;;;;;24.29;60.52;99636.81;4458981;32;35760;-89
2023/05/11 10:11:10;;;;;;;2.87;1.00;;;;;;;24.37;60.53;99629.84;4485903;32;20440;-90
2023/05/11 10:13:39;;;;;;;1.83;0.90;;;;;;;24.25;60.52;99632.72;4459683;32;20160;-89
2023/05/11 10:16:05;;;;;;;3.25;1.33;;;;;;;24.25;60.52;99643.37;4473078;32;20088;-90
2023/05/11 10:18:31;;;;;;;4.03;1.15;;;;;;;24.22;60.52;99630.34;4485892;32;20080;-89
2023/05/11 10:20:57;;;;;;;1.73;0.90;;;;;;;24.44;60.54;99630.97;4472679;32;20169;-90
2023/05/11 10:23:22;;;;;;;3.33;1.10;;;;;;;24.60;60.54;99625.03;4472751;32;20123;-88
2023/05/11 10:25:48;;;;;;;2.33;1.10;;;;;;;24.74;60.55;99627.28;4459127;32;24016;-89
2023/05/11 10:28:13;;;;;;;4.30;1.17;;;;;;;24.88;60.55;99622.50;4472702;32;20428;-88
2023/05/11 10:30:39;;;;;;;7.22;1.00;;;;;;;24.91;60.56;99617.72;4485727;32;20175;-89
2023/05/11 10:33:04;;;;;;;3.40;1.02;;;;;;;24.70;60.54;99625.06;4472243;32;21607;-88
2023/05/11 10:35:30;;;;;;;7.03;1.90;;;;;;;24.52;60.54;99619.59;4471920;32;28085;-89
2023/05/11 10:37:55;;;;;;;7.60;1.50;;;;;;;24.60;60.54;99625.03;4459521;32;20131;-90
2023/05/11 10:40:21;;;;;;;2.87;1.00;;;;;;;24.67;60.54;99623.53;4459463;32;20108;-88
2023/05/11 10:43:11;;;;;;;2.87;1.12;;;;;;;24.38;60.52;99625.38;4485791;32;20123;-89
2023/05/11 10:45:47;;;;;;;2.53;1.20;;;;;;;24.37;60.53;99623.66;4486976;32;20096;-88
2023/05/11 10:48:50;;;;;;;2.70;1.42;;;;;;;24.54;60.54;99622.13;4485840;32;20110;-90
2023/05/11 10:51:40;;;;;;;5.20;1.30;;;;;;;24.70;60.54;99604.59;4487339;31;20089;-89
2023/05/11 10:54:41;;;;;;;4.05;1.25;;;;;;;24.59;60.55;99611.87;4486179;32;20092;-90
2023/05/11 10:57:36;;;;;;;3.72;1.10;;;;;;;24.82;60.56;99612.41;4452336;32;20081;-89
2023/05/11 11:00:29;;;;;;;7.07;1.30;;;;;;;25.31;60.58;99606.81;4473782;32;20080;-89
2023/05/11 11:03:07;;;;;;;4.55;1.10;;;;;;;25.39;60.58;99614.94;4485775;32;20084;-89
2023/05/11 11:05:33;;;;;;;11.50;2.33;;;;;;;25.32;60.58;99610.34;4473733;32;20100;-88
2023/05/11 11:08:02;;;;;;;6.15;1.37;;;;;;;25.38;60.58;99602.59;4472383;32;20084;-88
2023/05/11 11:10:38;;;;;;;2.20;1.02;;;;;;;25.03;60.56;99602.44;4472794;32;20088;-89
2023/05/11 11:13:04;;;;;;;2.47;1.12;;;;;;;25.13;60.58;99613.09;4485356;32;20433;-92
2023/05/11 11:16:03;;;;;;;2.25;1.30;;;;;;;25.02;60.56;99596.28;4472233;32;20157;-89
2023/05/11 11:18:29;;;;;;;6.18;1.33;;;;;;;25.08;60.57;99594.88;4474396;31;20083;-88
2023/05/11 11:20:56;;;;;;;3.97;1.20;;;;;;;25.21;60.58;99606.03;4472247;32;20093;-89
2023/05/11 11:23:43;;;;;;;4.82;1.65;;;;;;;24.73;60.54;99600.81;4486642;31;20131;-88
2023/05/11 11:26:15;;;;;;;3.55;1.10;;;;;;;24.10;60.51;99600.38;4486614;31;20093;-88
2023/05/11 11:28:52;;;;;;;2.60;1.00;;;;;;;24.09;60.51;99598.69;4485358;32;20106;-90
2023/05/11 11:31:27;;;;;;;2.10;1.02;;;;;;;24.09;60.51;99601.34;4486572;32;20469;-88
2023/05/11 11:33:57;;;;;;;2.08;1.20;;;;;;;24.28;60.53;99596.09;4472334;32;20171;-89
2023/05/11 11:36:54;;;;;;;6.05;1.42;;;;;;;24.54;60.54;99584.88;4473040;32;20120;-90